<?xml version="1.0" encoding="UTF-8" standalone="no" ?>
<gpx xmlns="http://www.topografix.com/GPX/1/1" xmlns:xsi="http://www.w3.org/2001/XMLSchema-instance" xsi:schemaLocation="http://www.topografix.com/GPX/1/1 http://www.topografix.com/GPX/1/1/gpx.xsd" version="1.1" creator="VisuGPX - https://www.visugpx.com">
  <metadata>
    <name>Trek au Ladakh</name>
    <desc><![CDATA[Trek au Ladakh - Septembre 2015]]></desc>
  </metadata>
  <trk>
    <name><![CDATA[Camp de Thukjay (4550m) près du lac Tso Kar et visite du monastère de Gonpa]]></name>
    <trkseg>
      <trkpt lat="33.36019" lon="78.02101">
        <ele>4559.6</ele>
        <time>2015-09-07T10:39:03Z</time>
      </trkpt>
      <trkpt lat="33.36019" lon="78.02103">
        <ele>4559.8</ele>
        <time>2015-09-07T10:39:05Z</time>
      </trkpt>
      <trkpt lat="33.36017" lon="78.02105">
        <ele>4560.8</ele>
        <time>2015-09-07T10:39:08Z</time>
      </trkpt>
      <trkpt lat="33.36017" lon="78.02105">
        <ele>4561</ele>
        <time>2015-09-07T10:39:09Z</time>
      </trkpt>
      <trkpt lat="33.36013" lon="78.02124">
        <ele>4560.4</ele>
        <time>2015-09-07T10:39:23Z</time>
      </trkpt>
      <trkpt lat="33.36018" lon="78.02121">
        <ele>4560.4</ele>
        <time>2015-09-07T10:39:27Z</time>
      </trkpt>
      <trkpt lat="33.36018" lon="78.02122">
        <ele>4560.4</ele>
        <time>2015-09-07T10:39:29Z</time>
      </trkpt>
      <trkpt lat="33.36015" lon="78.0213">
        <ele>4560.8</ele>
        <time>2015-09-07T10:39:34Z</time>
      </trkpt>
      <trkpt lat="33.36014" lon="78.02136">
        <ele>4561.6</ele>
        <time>2015-09-07T10:39:53Z</time>
      </trkpt>
      <trkpt lat="33.36011" lon="78.02142">
        <ele>4561.6</ele>
        <time>2015-09-07T10:39:56Z</time>
      </trkpt>
      <trkpt lat="33.36007" lon="78.02149">
        <ele>4561.8</ele>
        <time>2015-09-07T10:40:01Z</time>
      </trkpt>
      <trkpt lat="33.35998" lon="78.02167">
        <ele>4562.4</ele>
        <time>2015-09-07T10:40:20Z</time>
      </trkpt>
      <trkpt lat="33.35999" lon="78.02168">
        <ele>4563</ele>
        <time>2015-09-07T10:40:27Z</time>
      </trkpt>
      <trkpt lat="33.35994" lon="78.02186">
        <ele>4563.2</ele>
        <time>2015-09-07T10:41:00Z</time>
      </trkpt>
      <trkpt lat="33.35995" lon="78.02189">
        <ele>4563.2</ele>
        <time>2015-09-07T10:41:02Z</time>
      </trkpt>
      <trkpt lat="33.35999" lon="78.02195">
        <ele>4563.2</ele>
        <time>2015-09-07T10:41:16Z</time>
      </trkpt>
      <trkpt lat="33.35996" lon="78.02202">
        <ele>4563.4</ele>
        <time>2015-09-07T10:41:25Z</time>
      </trkpt>
      <trkpt lat="33.35997" lon="78.02192">
        <ele>4563.2</ele>
        <time>2015-09-07T10:41:30Z</time>
      </trkpt>
      <trkpt lat="33.35993" lon="78.022">
        <ele>4562.8</ele>
        <time>2015-09-07T10:41:46Z</time>
      </trkpt>
      <trkpt lat="33.35988" lon="78.02218">
        <ele>4562.6</ele>
        <time>2015-09-07T10:42:02Z</time>
      </trkpt>
      <trkpt lat="33.35992" lon="78.02221">
        <ele>4562.2</ele>
        <time>2015-09-07T10:42:23Z</time>
      </trkpt>
      <trkpt lat="33.35992" lon="78.02225">
        <ele>4562.8</ele>
        <time>2015-09-07T10:42:26Z</time>
      </trkpt>
      <trkpt lat="33.35995" lon="78.02244">
        <ele>4564</ele>
        <time>2015-09-07T10:42:44Z</time>
      </trkpt>
      <trkpt lat="33.35994" lon="78.02253">
        <ele>4565</ele>
        <time>2015-09-07T10:42:53Z</time>
      </trkpt>
      <trkpt lat="33.35995" lon="78.02267">
        <ele>4565.2</ele>
        <time>2015-09-07T10:43:04Z</time>
      </trkpt>
      <trkpt lat="33.35995" lon="78.02274">
        <ele>4566.2</ele>
        <time>2015-09-07T10:43:32Z</time>
      </trkpt>
      <trkpt lat="33.35998" lon="78.02288">
        <ele>4567.2</ele>
        <time>2015-09-07T10:43:49Z</time>
      </trkpt>
      <trkpt lat="33.36" lon="78.02292">
        <ele>4567.6</ele>
        <time>2015-09-07T10:43:53Z</time>
      </trkpt>
      <trkpt lat="33.36001" lon="78.02294">
        <ele>4567.6</ele>
        <time>2015-09-07T10:43:55Z</time>
      </trkpt>
      <trkpt lat="33.36002" lon="78.02296">
        <ele>4567.6</ele>
        <time>2015-09-07T10:43:57Z</time>
      </trkpt>
      <trkpt lat="33.36003" lon="78.02298">
        <ele>4567.6</ele>
        <time>2015-09-07T10:44:00Z</time>
      </trkpt>
      <trkpt lat="33.36006" lon="78.02301">
        <ele>4568.4</ele>
        <time>2015-09-07T10:44:05Z</time>
      </trkpt>
      <trkpt lat="33.36015" lon="78.02302">
        <ele>4569.2</ele>
        <time>2015-09-07T10:44:15Z</time>
      </trkpt>
      <trkpt lat="33.36012" lon="78.02299">
        <ele>4569.6</ele>
        <time>2015-09-07T10:44:39Z</time>
      </trkpt>
      <trkpt lat="33.36017" lon="78.02305">
        <ele>4570.6</ele>
        <time>2015-09-07T10:44:52Z</time>
      </trkpt>
      <trkpt lat="33.36025" lon="78.02307">
        <ele>4571.8</ele>
        <time>2015-09-07T10:45:05Z</time>
      </trkpt>
      <trkpt lat="33.36027" lon="78.02308">
        <ele>4572.8</ele>
        <time>2015-09-07T10:45:12Z</time>
      </trkpt>
      <trkpt lat="33.36034" lon="78.02315">
        <ele>4573.8</ele>
        <time>2015-09-07T10:45:25Z</time>
      </trkpt>
      <trkpt lat="33.3604" lon="78.02324">
        <ele>4574.4</ele>
        <time>2015-09-07T10:45:36Z</time>
      </trkpt>
      <trkpt lat="33.36043" lon="78.02325">
        <ele>4575</ele>
        <time>2015-09-07T10:45:41Z</time>
      </trkpt>
      <trkpt lat="33.36044" lon="78.02328">
        <ele>4576.2</ele>
        <time>2015-09-07T10:45:49Z</time>
      </trkpt>
      <trkpt lat="33.3605" lon="78.02336">
        <ele>4577.4</ele>
        <time>2015-09-07T10:46:06Z</time>
      </trkpt>
      <trkpt lat="33.36052" lon="78.02339">
        <ele>4578.4</ele>
        <time>2015-09-07T10:46:12Z</time>
      </trkpt>
      <trkpt lat="33.36052" lon="78.02337">
        <ele>4579.6</ele>
        <time>2015-09-07T10:46:16Z</time>
      </trkpt>
      <trkpt lat="33.3606" lon="78.02345">
        <ele>4580.6</ele>
        <time>2015-09-07T10:46:38Z</time>
      </trkpt>
      <trkpt lat="33.36064" lon="78.02346">
        <ele>4581.6</ele>
        <time>2015-09-07T10:46:49Z</time>
      </trkpt>
      <trkpt lat="33.36066" lon="78.02345">
        <ele>4582.6</ele>
        <time>2015-09-07T10:46:53Z</time>
      </trkpt>
      <trkpt lat="33.36071" lon="78.02345">
        <ele>4584</ele>
        <time>2015-09-07T10:47:07Z</time>
      </trkpt>
      <trkpt lat="33.36064" lon="78.0235">
        <ele>4585</ele>
        <time>2015-09-07T10:47:15Z</time>
      </trkpt>
      <trkpt lat="33.36061" lon="78.02348">
        <ele>4585.2</ele>
        <time>2015-09-07T10:47:17Z</time>
      </trkpt>
      <trkpt lat="33.36062" lon="78.02344">
        <ele>4585.6</ele>
        <time>2015-09-07T10:47:19Z</time>
      </trkpt>
      <trkpt lat="33.36062" lon="78.02343">
        <ele>4586.2</ele>
        <time>2015-09-07T10:47:21Z</time>
      </trkpt>
      <trkpt lat="33.36065" lon="78.02346">
        <ele>4587.2</ele>
        <time>2015-09-07T10:47:27Z</time>
      </trkpt>
      <trkpt lat="33.36067" lon="78.02351">
        <ele>4588.4</ele>
        <time>2015-09-07T10:47:37Z</time>
      </trkpt>
      <trkpt lat="33.36072" lon="78.02347">
        <ele>4589.4</ele>
        <time>2015-09-07T10:47:46Z</time>
      </trkpt>
      <trkpt lat="33.36071" lon="78.0235">
        <ele>4590.6</ele>
        <time>2015-09-07T10:47:53Z</time>
      </trkpt>
      <trkpt lat="33.36073" lon="78.02353">
        <ele>4591.6</ele>
        <time>2015-09-07T10:48:03Z</time>
      </trkpt>
      <trkpt lat="33.36079" lon="78.02354">
        <ele>4593</ele>
        <time>2015-09-07T10:48:13Z</time>
      </trkpt>
      <trkpt lat="33.36079" lon="78.02356">
        <ele>4594</ele>
        <time>2015-09-07T10:48:19Z</time>
      </trkpt>
      <trkpt lat="33.36077" lon="78.0236">
        <ele>4595</ele>
        <time>2015-09-07T10:48:26Z</time>
      </trkpt>
      <trkpt lat="33.36081" lon="78.0237">
        <ele>4596.2</ele>
        <time>2015-09-07T10:48:36Z</time>
      </trkpt>
      <trkpt lat="33.36087" lon="78.0238">
        <ele>4597.2</ele>
        <time>2015-09-07T10:48:52Z</time>
      </trkpt>
      <trkpt lat="33.36092" lon="78.02384">
        <ele>4598.4</ele>
        <time>2015-09-07T10:49:03Z</time>
      </trkpt>
      <trkpt lat="33.36093" lon="78.02387">
        <ele>4599.4</ele>
        <time>2015-09-07T10:49:08Z</time>
      </trkpt>
      <trkpt lat="33.36094" lon="78.02392">
        <ele>4600.4</ele>
        <time>2015-09-07T10:49:15Z</time>
      </trkpt>
      <trkpt lat="33.36095" lon="78.02391">
        <ele>4601.6</ele>
        <time>2015-09-07T10:49:23Z</time>
      </trkpt>
      <trkpt lat="33.36099" lon="78.02394">
        <ele>4602.6</ele>
        <time>2015-09-07T10:49:30Z</time>
      </trkpt>
      <trkpt lat="33.361" lon="78.02391">
        <ele>4603.6</ele>
        <time>2015-09-07T10:49:40Z</time>
      </trkpt>
      <trkpt lat="33.36106" lon="78.02395">
        <ele>4604.8</ele>
        <time>2015-09-07T10:49:50Z</time>
      </trkpt>
      <trkpt lat="33.36103" lon="78.02393">
        <ele>4606</ele>
        <time>2015-09-07T10:49:55Z</time>
      </trkpt>
      <trkpt lat="33.36101" lon="78.02398">
        <ele>4607.2</ele>
        <time>2015-09-07T10:50:03Z</time>
      </trkpt>
      <trkpt lat="33.36103" lon="78.024">
        <ele>4608.2</ele>
        <time>2015-09-07T10:50:17Z</time>
      </trkpt>
      <trkpt lat="33.36112" lon="78.02408">
        <ele>4609.2</ele>
        <time>2015-09-07T10:50:29Z</time>
      </trkpt>
      <trkpt lat="33.3612" lon="78.02416">
        <ele>4610</ele>
        <time>2015-09-07T10:50:37Z</time>
      </trkpt>
      <trkpt lat="33.36122" lon="78.02419">
        <ele>4610.2</ele>
        <time>2015-09-07T10:50:40Z</time>
      </trkpt>
      <trkpt lat="33.36125" lon="78.02422">
        <ele>4611.4</ele>
        <time>2015-09-07T10:50:47Z</time>
      </trkpt>
      <trkpt lat="33.36125" lon="78.02423">
        <ele>4611.8</ele>
        <time>2015-09-07T10:50:52Z</time>
      </trkpt>
      <trkpt lat="33.36122" lon="78.02427">
        <ele>4612.4</ele>
        <time>2015-09-07T10:50:57Z</time>
      </trkpt>
      <trkpt lat="33.36118" lon="78.02427">
        <ele>4613.6</ele>
        <time>2015-09-07T10:51:08Z</time>
      </trkpt>
      <trkpt lat="33.36121" lon="78.02431">
        <ele>4614.6</ele>
        <time>2015-09-07T10:51:25Z</time>
      </trkpt>
      <trkpt lat="33.36119" lon="78.02435">
        <ele>4616</ele>
        <time>2015-09-07T10:51:30Z</time>
      </trkpt>
      <trkpt lat="33.3612" lon="78.02435">
        <ele>4617.2</ele>
        <time>2015-09-07T10:51:32Z</time>
      </trkpt>
      <trkpt lat="33.3612" lon="78.02438">
        <ele>4618.4</ele>
        <time>2015-09-07T10:51:36Z</time>
      </trkpt>
      <trkpt lat="33.3612" lon="78.02442">
        <ele>4619.4</ele>
        <time>2015-09-07T10:51:53Z</time>
      </trkpt>
      <trkpt lat="33.36121" lon="78.02446">
        <ele>4620.6</ele>
        <time>2015-09-07T10:52:02Z</time>
      </trkpt>
      <trkpt lat="33.36122" lon="78.02451">
        <ele>4621.6</ele>
        <time>2015-09-07T10:52:11Z</time>
      </trkpt>
      <trkpt lat="33.36125" lon="78.02453">
        <ele>4621.8</ele>
        <time>2015-09-07T10:52:14Z</time>
      </trkpt>
      <trkpt lat="33.36128" lon="78.02453">
        <ele>4621.8</ele>
        <time>2015-09-07T10:52:16Z</time>
      </trkpt>
      <trkpt lat="33.36135" lon="78.02454">
        <ele>4621.8</ele>
        <time>2015-09-07T10:52:21Z</time>
      </trkpt>
      <trkpt lat="33.36137" lon="78.02454">
        <ele>4622.6</ele>
        <time>2015-09-07T10:52:27Z</time>
      </trkpt>
      <trkpt lat="33.36138" lon="78.02452">
        <ele>4623.2</ele>
        <time>2015-09-07T10:52:30Z</time>
      </trkpt>
      <trkpt lat="33.36139" lon="78.02449">
        <ele>4623.6</ele>
        <time>2015-09-07T10:52:33Z</time>
      </trkpt>
      <trkpt lat="33.3614" lon="78.02447">
        <ele>4624.2</ele>
        <time>2015-09-07T10:52:35Z</time>
      </trkpt>
      <trkpt lat="33.3614" lon="78.02447">
        <ele>4624.8</ele>
        <time>2015-09-07T10:52:37Z</time>
      </trkpt>
      <trkpt lat="33.36142" lon="78.02453">
        <ele>4626</ele>
        <time>2015-09-07T10:52:46Z</time>
      </trkpt>
      <trkpt lat="33.36142" lon="78.02455">
        <ele>4627</ele>
        <time>2015-09-07T10:52:54Z</time>
      </trkpt>
      <trkpt lat="33.36142" lon="78.02456">
        <ele>4627.4</ele>
        <time>2015-09-07T10:52:57Z</time>
      </trkpt>
      <trkpt lat="33.36139" lon="78.02459">
        <ele>4628</ele>
        <time>2015-09-07T10:53:02Z</time>
      </trkpt>
      <trkpt lat="33.36138" lon="78.0246">
        <ele>4629</ele>
        <time>2015-09-07T10:53:11Z</time>
      </trkpt>
      <trkpt lat="33.36141" lon="78.02459">
        <ele>4629.6</ele>
        <time>2015-09-07T10:53:17Z</time>
      </trkpt>
      <trkpt lat="33.36143" lon="78.0246">
        <ele>4630</ele>
        <time>2015-09-07T10:53:19Z</time>
      </trkpt>
      <trkpt lat="33.36144" lon="78.0246">
        <ele>4630.2</ele>
        <time>2015-09-07T10:53:20Z</time>
      </trkpt>
      <trkpt lat="33.36143" lon="78.02462">
        <ele>4630.2</ele>
        <time>2015-09-07T10:53:21Z</time>
      </trkpt>
      <trkpt lat="33.36142" lon="78.02463">
        <ele>4631.2</ele>
        <time>2015-09-07T10:53:47Z</time>
      </trkpt>
      <trkpt lat="33.36144" lon="78.02463">
        <ele>4632.4</ele>
        <time>2015-09-07T10:53:54Z</time>
      </trkpt>
      <trkpt lat="33.36146" lon="78.02463">
        <ele>4633.4</ele>
        <time>2015-09-07T10:53:57Z</time>
      </trkpt>
      <trkpt lat="33.36147" lon="78.02462">
        <ele>4634.6</ele>
        <time>2015-09-07T10:53:59Z</time>
      </trkpt>
      <trkpt lat="33.36148" lon="78.02462">
        <ele>4636.4</ele>
        <time>2015-09-07T10:54:01Z</time>
      </trkpt>
      <trkpt lat="33.36149" lon="78.02462">
        <ele>4637.6</ele>
        <time>2015-09-07T10:54:03Z</time>
      </trkpt>
      <trkpt lat="33.3615" lon="78.02462">
        <ele>4638.6</ele>
        <time>2015-09-07T10:54:05Z</time>
      </trkpt>
      <trkpt lat="33.36151" lon="78.02463">
        <ele>4639.8</ele>
        <time>2015-09-07T10:54:07Z</time>
      </trkpt>
      <trkpt lat="33.36151" lon="78.02474">
        <ele>4639.8</ele>
        <time>2015-09-07T10:54:22Z</time>
      </trkpt>
      <trkpt lat="33.36147" lon="78.02479">
        <ele>4639.8</ele>
        <time>2015-09-07T10:54:28Z</time>
      </trkpt>
      <trkpt lat="33.3615" lon="78.02493">
        <ele>4639.6</ele>
        <time>2015-09-07T10:54:43Z</time>
      </trkpt>
      <trkpt lat="33.36149" lon="78.02499">
        <ele>4640.2</ele>
        <time>2015-09-07T10:55:26Z</time>
      </trkpt>
      <trkpt lat="33.36151" lon="78.02497">
        <ele>4640.4</ele>
        <time>2015-09-07T10:55:29Z</time>
      </trkpt>
      <trkpt lat="33.36152" lon="78.02496">
        <ele>4640.8</ele>
        <time>2015-09-07T10:55:32Z</time>
      </trkpt>
      <trkpt lat="33.36152" lon="78.02492">
        <ele>4641.8</ele>
        <time>2015-09-07T10:55:39Z</time>
      </trkpt>
      <trkpt lat="33.36151" lon="78.02489">
        <ele>4641.6</ele>
        <time>2015-09-07T10:55:41Z</time>
      </trkpt>
      <trkpt lat="33.36148" lon="78.02488">
        <ele>4641.4</ele>
        <time>2015-09-07T10:55:43Z</time>
      </trkpt>
      <trkpt lat="33.36146" lon="78.02487">
        <ele>4640.6</ele>
        <time>2015-09-07T10:55:45Z</time>
      </trkpt>
      <trkpt lat="33.36147" lon="78.0249">
        <ele>4639.8</ele>
        <time>2015-09-07T10:55:59Z</time>
      </trkpt>
      <trkpt lat="33.36149" lon="78.0249">
        <ele>4640.4</ele>
        <time>2015-09-07T10:56:02Z</time>
      </trkpt>
      <trkpt lat="33.36149" lon="78.02491">
        <ele>4640.8</ele>
        <time>2015-09-07T10:56:03Z</time>
      </trkpt>
      <trkpt lat="33.3615" lon="78.02492">
        <ele>4641.2</ele>
        <time>2015-09-07T10:56:04Z</time>
      </trkpt>
      <trkpt lat="33.3615" lon="78.02492">
        <ele>4641.6</ele>
        <time>2015-09-07T10:56:07Z</time>
      </trkpt>
      <trkpt lat="33.36157" lon="78.02491">
        <ele>4641.8</ele>
        <time>2015-09-07T10:56:17Z</time>
      </trkpt>
      <trkpt lat="33.36155" lon="78.02495">
        <ele>4641.4</ele>
        <time>2015-09-07T10:56:25Z</time>
      </trkpt>
      <trkpt lat="33.3615" lon="78.02498">
        <ele>4640.4</ele>
        <time>2015-09-07T10:56:31Z</time>
      </trkpt>
      <trkpt lat="33.36148" lon="78.02503">
        <ele>4640.2</ele>
        <time>2015-09-07T10:57:05Z</time>
      </trkpt>
      <trkpt lat="33.36152" lon="78.025">
        <ele>4641.2</ele>
        <time>2015-09-07T10:57:40Z</time>
      </trkpt>
      <trkpt lat="33.36152" lon="78.02501">
        <ele>4641.2</ele>
        <time>2015-09-07T10:57:42Z</time>
      </trkpt>
      <trkpt lat="33.36152" lon="78.02501">
        <ele>4641.6</ele>
        <time>2015-09-07T10:57:44Z</time>
      </trkpt>
      <trkpt lat="33.36148" lon="78.02494">
        <ele>4640.4</ele>
        <time>2015-09-07T10:58:05Z</time>
      </trkpt>
      <trkpt lat="33.36149" lon="78.02494">
        <ele>4640.2</ele>
        <time>2015-09-07T10:58:13Z</time>
      </trkpt>
      <trkpt lat="33.36152" lon="78.02482">
        <ele>4640.2</ele>
        <time>2015-09-07T10:58:43Z</time>
      </trkpt>
      <trkpt lat="33.36153" lon="78.0248">
        <ele>4640</ele>
        <time>2015-09-07T10:58:44Z</time>
      </trkpt>
      <trkpt lat="33.36157" lon="78.02478">
        <ele>4639.8</ele>
        <time>2015-09-07T10:58:47Z</time>
      </trkpt>
      <trkpt lat="33.3616" lon="78.02475">
        <ele>4640.6</ele>
        <time>2015-09-07T10:58:50Z</time>
      </trkpt>
      <trkpt lat="33.3616" lon="78.02471">
        <ele>4641.4</ele>
        <time>2015-09-07T10:59:08Z</time>
      </trkpt>
      <trkpt lat="33.36159" lon="78.02477">
        <ele>4642.4</ele>
        <time>2015-09-07T10:59:27Z</time>
      </trkpt>
      <trkpt lat="33.36152" lon="78.02477">
        <ele>4642.6</ele>
        <time>2015-09-07T10:59:32Z</time>
      </trkpt>
      <trkpt lat="33.36156" lon="78.02473">
        <ele>4643.4</ele>
        <time>2015-09-07T10:59:40Z</time>
      </trkpt>
      <trkpt lat="33.36156" lon="78.02469">
        <ele>4643.6</ele>
        <time>2015-09-07T10:59:43Z</time>
      </trkpt>
      <trkpt lat="33.36157" lon="78.02469">
        <ele>4643.4</ele>
        <time>2015-09-07T11:00:16Z</time>
      </trkpt>
      <trkpt lat="33.36158" lon="78.02467">
        <ele>4644</ele>
        <time>2015-09-07T11:00:21Z</time>
      </trkpt>
      <trkpt lat="33.36159" lon="78.02466">
        <ele>4644</ele>
        <time>2015-09-07T11:00:23Z</time>
      </trkpt>
      <trkpt lat="33.36162" lon="78.02465">
        <ele>4644.2</ele>
        <time>2015-09-07T11:00:25Z</time>
      </trkpt>
      <trkpt lat="33.3616" lon="78.02464">
        <ele>4644.4</ele>
        <time>2015-09-07T11:00:37Z</time>
      </trkpt>
      <trkpt lat="33.36159" lon="78.02461">
        <ele>4644.6</ele>
        <time>2015-09-07T11:00:41Z</time>
      </trkpt>
      <trkpt lat="33.36122" lon="78.02449">
        <ele>4644</ele>
        <time>2015-09-07T11:02:44Z</time>
      </trkpt>
      <trkpt lat="33.36125" lon="78.02446">
        <ele>4644.6</ele>
        <time>2015-09-07T11:03:04Z</time>
      </trkpt>
      <trkpt lat="33.36133" lon="78.02434">
        <ele>4644.6</ele>
        <time>2015-09-07T11:04:02Z</time>
      </trkpt>
      <trkpt lat="33.36173" lon="78.02449">
        <ele>4645.6</ele>
        <time>2015-09-07T11:04:53Z</time>
      </trkpt>
      <trkpt lat="33.36157" lon="78.02431">
        <ele>4644.6</ele>
        <time>2015-09-07T11:10:35Z</time>
      </trkpt>
      <trkpt lat="33.36177" lon="78.02474">
        <ele>4645</ele>
        <time>2015-09-07T11:11:36Z</time>
      </trkpt>
      <trkpt lat="33.36181" lon="78.02481">
        <ele>4645</ele>
        <time>2015-09-07T11:12:19Z</time>
      </trkpt>
      <trkpt lat="33.36235" lon="78.02491">
        <ele>4643.6</ele>
        <time>2015-09-07T11:13:04Z</time>
      </trkpt>
      <trkpt lat="33.36146" lon="78.02478">
        <ele>4642.4</ele>
        <time>2015-09-07T11:16:43Z</time>
      </trkpt>
      <trkpt lat="33.36163" lon="78.02474">
        <ele>4643.2</ele>
        <time>2015-09-07T11:17:34Z</time>
      </trkpt>
      <trkpt lat="33.36163" lon="78.02476">
        <ele>4643.4</ele>
        <time>2015-09-07T11:17:43Z</time>
      </trkpt>
      <trkpt lat="33.36164" lon="78.02475">
        <ele>4643.4</ele>
        <time>2015-09-07T11:17:45Z</time>
      </trkpt>
      <trkpt lat="33.3616" lon="78.02474">
        <ele>4643.4</ele>
        <time>2015-09-07T11:17:48Z</time>
      </trkpt>
      <trkpt lat="33.36157" lon="78.02476">
        <ele>4643.6</ele>
        <time>2015-09-07T11:17:49Z</time>
      </trkpt>
      <trkpt lat="33.36157" lon="78.02476">
        <ele>4643.6</ele>
        <time>2015-09-07T11:17:50Z</time>
      </trkpt>
      <trkpt lat="33.36155" lon="78.02477">
        <ele>4643.6</ele>
        <time>2015-09-07T11:17:52Z</time>
      </trkpt>
      <trkpt lat="33.36151" lon="78.02478">
        <ele>4643.2</ele>
        <time>2015-09-07T11:17:56Z</time>
      </trkpt>
      <trkpt lat="33.3615" lon="78.02477">
        <ele>4643.2</ele>
        <time>2015-09-07T11:17:59Z</time>
      </trkpt>
      <trkpt lat="33.36165" lon="78.02466">
        <ele>4643</ele>
        <time>2015-09-07T11:18:27Z</time>
      </trkpt>
      <trkpt lat="33.36155" lon="78.02476">
        <ele>4643.4</ele>
        <time>2015-09-07T11:18:35Z</time>
      </trkpt>
      <trkpt lat="33.36153" lon="78.0248">
        <ele>4643.4</ele>
        <time>2015-09-07T11:18:37Z</time>
      </trkpt>
      <trkpt lat="33.36153" lon="78.0248">
        <ele>4643.4</ele>
        <time>2015-09-07T11:18:39Z</time>
      </trkpt>
      <trkpt lat="33.36155" lon="78.02476">
        <ele>4643.8</ele>
        <time>2015-09-07T11:18:54Z</time>
      </trkpt>
      <trkpt lat="33.36156" lon="78.02475">
        <ele>4643.8</ele>
        <time>2015-09-07T11:18:56Z</time>
      </trkpt>
      <trkpt lat="33.36161" lon="78.02476">
        <ele>4643.8</ele>
        <time>2015-09-07T11:18:58Z</time>
      </trkpt>
      <trkpt lat="33.36161" lon="78.02473">
        <ele>4644.6</ele>
        <time>2015-09-07T11:19:07Z</time>
      </trkpt>
      <trkpt lat="33.36161" lon="78.02472">
        <ele>4645.6</ele>
        <time>2015-09-07T11:19:09Z</time>
      </trkpt>
      <trkpt lat="33.36191" lon="78.02471">
        <ele>4644.6</ele>
        <time>2015-09-07T11:19:34Z</time>
      </trkpt>
      <trkpt lat="33.36188" lon="78.0246">
        <ele>4645.4</ele>
        <time>2015-09-07T11:19:44Z</time>
      </trkpt>
      <trkpt lat="33.36189" lon="78.02455">
        <ele>4645.6</ele>
        <time>2015-09-07T11:19:47Z</time>
      </trkpt>
      <trkpt lat="33.36189" lon="78.02455">
        <ele>4645.6</ele>
        <time>2015-09-07T11:19:48Z</time>
      </trkpt>
      <trkpt lat="33.36177" lon="78.02459">
        <ele>4644.8</ele>
        <time>2015-09-07T11:19:52Z</time>
      </trkpt>
      <trkpt lat="33.36169" lon="78.02464">
        <ele>4644.8</ele>
        <time>2015-09-07T11:19:54Z</time>
      </trkpt>
      <trkpt lat="33.36152" lon="78.02491">
        <ele>4646.6</ele>
        <time>2015-09-07T11:20:57Z</time>
      </trkpt>
      <trkpt lat="33.36143" lon="78.02484">
        <ele>4647.4</ele>
        <time>2015-09-07T11:24:32Z</time>
      </trkpt>
      <trkpt lat="33.36155" lon="78.02484">
        <ele>4647.8</ele>
        <time>2015-09-07T11:25:16Z</time>
      </trkpt>
      <trkpt lat="33.36186" lon="78.0247">
        <ele>4648.4</ele>
        <time>2015-09-07T11:26:25Z</time>
      </trkpt>
      <trkpt lat="33.36174" lon="78.02475">
        <ele>4648.8</ele>
        <time>2015-09-07T11:27:00Z</time>
      </trkpt>
      <trkpt lat="33.36162" lon="78.02484">
        <ele>4650</ele>
        <time>2015-09-07T11:27:40Z</time>
      </trkpt>
      <trkpt lat="33.36154" lon="78.02509">
        <ele>4650.4</ele>
        <time>2015-09-07T11:28:44Z</time>
      </trkpt>
      <trkpt lat="33.3613" lon="78.02512">
        <ele>4651</ele>
        <time>2015-09-07T11:29:28Z</time>
      </trkpt>
      <trkpt lat="33.36127" lon="78.02515">
        <ele>4651.2</ele>
        <time>2015-09-07T11:29:30Z</time>
      </trkpt>
      <trkpt lat="33.36154" lon="78.02516">
        <ele>4652</ele>
        <time>2015-09-07T11:30:34Z</time>
      </trkpt>
      <trkpt lat="33.36163" lon="78.02504">
        <ele>4651.8</ele>
        <time>2015-09-07T11:30:43Z</time>
      </trkpt>
      <trkpt lat="33.36156" lon="78.02501">
        <ele>4652</ele>
        <time>2015-09-07T11:30:55Z</time>
      </trkpt>
      <trkpt lat="33.36158" lon="78.02494">
        <ele>4653.2</ele>
        <time>2015-09-07T11:32:05Z</time>
      </trkpt>
      <trkpt lat="33.36161" lon="78.02495">
        <ele>4653</ele>
        <time>2015-09-07T11:32:36Z</time>
      </trkpt>
      <trkpt lat="33.3616" lon="78.02488">
        <ele>4653.6</ele>
        <time>2015-09-07T11:32:44Z</time>
      </trkpt>
      <trkpt lat="33.36159" lon="78.02486">
        <ele>4653</ele>
        <time>2015-09-07T11:32:46Z</time>
      </trkpt>
      <trkpt lat="33.36157" lon="78.02483">
        <ele>4653</ele>
        <time>2015-09-07T11:32:50Z</time>
      </trkpt>
      <trkpt lat="33.36153" lon="78.02464">
        <ele>4653.6</ele>
        <time>2015-09-07T11:33:08Z</time>
      </trkpt>
      <trkpt lat="33.36155" lon="78.02459">
        <ele>4654.2</ele>
        <time>2015-09-07T11:33:13Z</time>
      </trkpt>
      <trkpt lat="33.36156" lon="78.02458">
        <ele>4654.2</ele>
        <time>2015-09-07T11:33:14Z</time>
      </trkpt>
      <trkpt lat="33.36158" lon="78.0247">
        <ele>4654.2</ele>
        <time>2015-09-07T11:33:24Z</time>
      </trkpt>
      <trkpt lat="33.36151" lon="78.0248">
        <ele>4653.4</ele>
        <time>2015-09-07T11:33:31Z</time>
      </trkpt>
      <trkpt lat="33.36152" lon="78.0248">
        <ele>4653.2</ele>
        <time>2015-09-07T11:33:33Z</time>
      </trkpt>
      <trkpt lat="33.36155" lon="78.02482">
        <ele>4653.2</ele>
        <time>2015-09-07T11:33:36Z</time>
      </trkpt>
      <trkpt lat="33.36153" lon="78.02479">
        <ele>4654</ele>
        <time>2015-09-07T11:33:42Z</time>
      </trkpt>
      <trkpt lat="33.36152" lon="78.02473">
        <ele>4654.2</ele>
        <time>2015-09-07T11:33:45Z</time>
      </trkpt>
      <trkpt lat="33.36155" lon="78.02468">
        <ele>4654.6</ele>
        <time>2015-09-07T11:33:50Z</time>
      </trkpt>
      <trkpt lat="33.3616" lon="78.02465">
        <ele>4653</ele>
        <time>2015-09-07T11:33:56Z</time>
      </trkpt>
      <trkpt lat="33.36169" lon="78.02462">
        <ele>4653.6</ele>
        <time>2015-09-07T11:34:24Z</time>
      </trkpt>
      <trkpt lat="33.36165" lon="78.0246">
        <ele>4654.2</ele>
        <time>2015-09-07T11:34:31Z</time>
      </trkpt>
      <trkpt lat="33.36164" lon="78.02469">
        <ele>4654.4</ele>
        <time>2015-09-07T11:34:45Z</time>
      </trkpt>
      <trkpt lat="33.36167" lon="78.02469">
        <ele>4654.4</ele>
        <time>2015-09-07T11:34:48Z</time>
      </trkpt>
      <trkpt lat="33.36158" lon="78.02473">
        <ele>4654.6</ele>
        <time>2015-09-07T11:35:19Z</time>
      </trkpt>
      <trkpt lat="33.36158" lon="78.02475">
        <ele>4654.6</ele>
        <time>2015-09-07T11:35:21Z</time>
      </trkpt>
      <trkpt lat="33.36161" lon="78.02473">
        <ele>4654.4</ele>
        <time>2015-09-07T11:35:33Z</time>
      </trkpt>
      <trkpt lat="33.36161" lon="78.0247">
        <ele>4655</ele>
        <time>2015-09-07T11:36:05Z</time>
      </trkpt>
      <trkpt lat="33.36164" lon="78.02469">
        <ele>4654.6</ele>
        <time>2015-09-07T11:36:09Z</time>
      </trkpt>
      <trkpt lat="33.36163" lon="78.02475">
        <ele>4655.2</ele>
        <time>2015-09-07T11:36:29Z</time>
      </trkpt>
      <trkpt lat="33.36171" lon="78.02469">
        <ele>4655</ele>
        <time>2015-09-07T11:36:57Z</time>
      </trkpt>
      <trkpt lat="33.3617" lon="78.02465">
        <ele>4654.6</ele>
        <time>2015-09-07T11:37:06Z</time>
      </trkpt>
      <trkpt lat="33.36163" lon="78.0247">
        <ele>4655.8</ele>
        <time>2015-09-07T11:38:00Z</time>
      </trkpt>
      <trkpt lat="33.36155" lon="78.02472">
        <ele>4654.6</ele>
        <time>2015-09-07T11:38:38Z</time>
      </trkpt>
      <trkpt lat="33.36153" lon="78.02475">
        <ele>4655.2</ele>
        <time>2015-09-07T11:38:48Z</time>
      </trkpt>
      <trkpt lat="33.36153" lon="78.02474">
        <ele>4654.8</ele>
        <time>2015-09-07T11:38:50Z</time>
      </trkpt>
      <trkpt lat="33.36146" lon="78.02464">
        <ele>4654.2</ele>
        <time>2015-09-07T11:39:02Z</time>
      </trkpt>
      <trkpt lat="33.36146" lon="78.02463">
        <ele>4654</ele>
        <time>2015-09-07T11:39:03Z</time>
      </trkpt>
      <trkpt lat="33.36144" lon="78.02465">
        <ele>4652.4</ele>
        <time>2015-09-07T11:39:08Z</time>
      </trkpt>
      <trkpt lat="33.36144" lon="78.02466">
        <ele>4651.2</ele>
        <time>2015-09-07T11:39:10Z</time>
      </trkpt>
      <trkpt lat="33.36143" lon="78.02466">
        <ele>4650.2</ele>
        <time>2015-09-07T11:39:12Z</time>
      </trkpt>
      <trkpt lat="33.36144" lon="78.02465">
        <ele>4648.6</ele>
        <time>2015-09-07T11:39:14Z</time>
      </trkpt>
      <trkpt lat="33.36143" lon="78.02464">
        <ele>4647.4</ele>
        <time>2015-09-07T11:39:21Z</time>
      </trkpt>
      <trkpt lat="33.36141" lon="78.0246">
        <ele>4646.4</ele>
        <time>2015-09-07T11:39:49Z</time>
      </trkpt>
      <trkpt lat="33.36137" lon="78.02458">
        <ele>4645</ele>
        <time>2015-09-07T11:40:07Z</time>
      </trkpt>
      <trkpt lat="33.36126" lon="78.02457">
        <ele>4644.6</ele>
        <time>2015-09-07T11:40:14Z</time>
      </trkpt>
      <trkpt lat="33.36125" lon="78.02456">
        <ele>4644.6</ele>
        <time>2015-09-07T11:40:16Z</time>
      </trkpt>
      <trkpt lat="33.36127" lon="78.02454">
        <ele>4643.8</ele>
        <time>2015-09-07T11:40:21Z</time>
      </trkpt>
      <trkpt lat="33.36128" lon="78.0245">
        <ele>4642.8</ele>
        <time>2015-09-07T11:40:29Z</time>
      </trkpt>
      <trkpt lat="33.36128" lon="78.0245">
        <ele>4641.6</ele>
        <time>2015-09-07T11:40:32Z</time>
      </trkpt>
      <trkpt lat="33.36124" lon="78.02445">
        <ele>4640.4</ele>
        <time>2015-09-07T11:40:41Z</time>
      </trkpt>
      <trkpt lat="33.36126" lon="78.02448">
        <ele>4640.2</ele>
        <time>2015-09-07T11:40:44Z</time>
      </trkpt>
      <trkpt lat="33.36126" lon="78.02449">
        <ele>4639.4</ele>
        <time>2015-09-07T11:40:49Z</time>
      </trkpt>
      <trkpt lat="33.36123" lon="78.02451">
        <ele>4638.2</ele>
        <time>2015-09-07T11:40:54Z</time>
      </trkpt>
      <trkpt lat="33.36124" lon="78.02451">
        <ele>4637.2</ele>
        <time>2015-09-07T11:41:03Z</time>
      </trkpt>
      <trkpt lat="33.36124" lon="78.0245">
        <ele>4637</ele>
        <time>2015-09-07T11:41:04Z</time>
      </trkpt>
      <trkpt lat="33.36122" lon="78.02445">
        <ele>4635.8</ele>
        <time>2015-09-07T11:41:09Z</time>
      </trkpt>
      <trkpt lat="33.3612" lon="78.02443">
        <ele>4634.4</ele>
        <time>2015-09-07T11:41:12Z</time>
      </trkpt>
      <trkpt lat="33.36117" lon="78.02436">
        <ele>4633.4</ele>
        <time>2015-09-07T11:41:19Z</time>
      </trkpt>
      <trkpt lat="33.36113" lon="78.02429">
        <ele>4632.2</ele>
        <time>2015-09-07T11:41:26Z</time>
      </trkpt>
      <trkpt lat="33.36111" lon="78.02425">
        <ele>4631</ele>
        <time>2015-09-07T11:41:31Z</time>
      </trkpt>
      <trkpt lat="33.36108" lon="78.02421">
        <ele>4629.8</ele>
        <time>2015-09-07T11:41:36Z</time>
      </trkpt>
      <trkpt lat="33.36106" lon="78.02418">
        <ele>4628.8</ele>
        <time>2015-09-07T11:41:39Z</time>
      </trkpt>
      <trkpt lat="33.361" lon="78.02412">
        <ele>4627.4</ele>
        <time>2015-09-07T11:41:46Z</time>
      </trkpt>
      <trkpt lat="33.36099" lon="78.02408">
        <ele>4626.4</ele>
        <time>2015-09-07T11:41:53Z</time>
      </trkpt>
      <trkpt lat="33.36101" lon="78.02406">
        <ele>4625.2</ele>
        <time>2015-09-07T11:41:57Z</time>
      </trkpt>
      <trkpt lat="33.36096" lon="78.02401">
        <ele>4623.8</ele>
        <time>2015-09-07T11:42:06Z</time>
      </trkpt>
      <trkpt lat="33.36096" lon="78.024">
        <ele>4622.8</ele>
        <time>2015-09-07T11:42:12Z</time>
      </trkpt>
      <trkpt lat="33.36094" lon="78.02398">
        <ele>4621.8</ele>
        <time>2015-09-07T11:42:16Z</time>
      </trkpt>
      <trkpt lat="33.36091" lon="78.02395">
        <ele>4620.6</ele>
        <time>2015-09-07T11:42:23Z</time>
      </trkpt>
      <trkpt lat="33.36089" lon="78.0239">
        <ele>4620</ele>
        <time>2015-09-07T11:42:28Z</time>
      </trkpt>
      <trkpt lat="33.36091" lon="78.02387">
        <ele>4619.4</ele>
        <time>2015-09-07T11:42:31Z</time>
      </trkpt>
      <trkpt lat="33.36091" lon="78.02382">
        <ele>4618.4</ele>
        <time>2015-09-07T11:42:38Z</time>
      </trkpt>
      <trkpt lat="33.3609" lon="78.02381">
        <ele>4618</ele>
        <time>2015-09-07T11:42:39Z</time>
      </trkpt>
      <trkpt lat="33.36089" lon="78.02377">
        <ele>4617.2</ele>
        <time>2015-09-07T11:42:42Z</time>
      </trkpt>
      <trkpt lat="33.36084" lon="78.02376">
        <ele>4616</ele>
        <time>2015-09-07T11:42:48Z</time>
      </trkpt>
      <trkpt lat="33.3608" lon="78.02375">
        <ele>4614.8</ele>
        <time>2015-09-07T11:42:52Z</time>
      </trkpt>
      <trkpt lat="33.36077" lon="78.02373">
        <ele>4613.6</ele>
        <time>2015-09-07T11:42:57Z</time>
      </trkpt>
      <trkpt lat="33.36073" lon="78.02368">
        <ele>4612.4</ele>
        <time>2015-09-07T11:43:06Z</time>
      </trkpt>
      <trkpt lat="33.36072" lon="78.02367">
        <ele>4611.4</ele>
        <time>2015-09-07T11:43:08Z</time>
      </trkpt>
      <trkpt lat="33.36071" lon="78.02364">
        <ele>4610.4</ele>
        <time>2015-09-07T11:43:12Z</time>
      </trkpt>
      <trkpt lat="33.36069" lon="78.02361">
        <ele>4609.2</ele>
        <time>2015-09-07T11:43:19Z</time>
      </trkpt>
      <trkpt lat="33.36066" lon="78.02357">
        <ele>4608</ele>
        <time>2015-09-07T11:43:27Z</time>
      </trkpt>
      <trkpt lat="33.36064" lon="78.02356">
        <ele>4607.6</ele>
        <time>2015-09-07T11:43:29Z</time>
      </trkpt>
      <trkpt lat="33.36064" lon="78.02355">
        <ele>4606.8</ele>
        <time>2015-09-07T11:43:31Z</time>
      </trkpt>
      <trkpt lat="33.36066" lon="78.02354">
        <ele>4606.6</ele>
        <time>2015-09-07T11:43:35Z</time>
      </trkpt>
      <trkpt lat="33.36059" lon="78.0235">
        <ele>4605.4</ele>
        <time>2015-09-07T11:43:40Z</time>
      </trkpt>
      <trkpt lat="33.36058" lon="78.02347">
        <ele>4604.4</ele>
        <time>2015-09-07T11:43:45Z</time>
      </trkpt>
      <trkpt lat="33.36055" lon="78.02344">
        <ele>4603.4</ele>
        <time>2015-09-07T11:43:49Z</time>
      </trkpt>
      <trkpt lat="33.36055" lon="78.02343">
        <ele>4603</ele>
        <time>2015-09-07T11:43:50Z</time>
      </trkpt>
      <trkpt lat="33.36053" lon="78.02343">
        <ele>4602</ele>
        <time>2015-09-07T11:43:54Z</time>
      </trkpt>
      <trkpt lat="33.36048" lon="78.02338">
        <ele>4601</ele>
        <time>2015-09-07T11:44:02Z</time>
      </trkpt>
      <trkpt lat="33.36047" lon="78.02337">
        <ele>4600.6</ele>
        <time>2015-09-07T11:44:03Z</time>
      </trkpt>
      <trkpt lat="33.36048" lon="78.02336">
        <ele>4599.6</ele>
        <time>2015-09-07T11:44:05Z</time>
      </trkpt>
      <trkpt lat="33.36046" lon="78.02334">
        <ele>4598.6</ele>
        <time>2015-09-07T11:44:09Z</time>
      </trkpt>
      <trkpt lat="33.3604" lon="78.02329">
        <ele>4597.6</ele>
        <time>2015-09-07T11:44:20Z</time>
      </trkpt>
      <trkpt lat="33.36037" lon="78.02324">
        <ele>4596.4</ele>
        <time>2015-09-07T11:44:26Z</time>
      </trkpt>
      <trkpt lat="33.36035" lon="78.0232">
        <ele>4595.4</ele>
        <time>2015-09-07T11:44:32Z</time>
      </trkpt>
      <trkpt lat="33.36032" lon="78.02316">
        <ele>4594.4</ele>
        <time>2015-09-07T11:44:38Z</time>
      </trkpt>
      <trkpt lat="33.36026" lon="78.02312">
        <ele>4593.4</ele>
        <time>2015-09-07T11:44:41Z</time>
      </trkpt>
      <trkpt lat="33.36025" lon="78.02312">
        <ele>4593</ele>
        <time>2015-09-07T11:44:42Z</time>
      </trkpt>
      <trkpt lat="33.3602" lon="78.02317">
        <ele>4592</ele>
        <time>2015-09-07T11:44:47Z</time>
      </trkpt>
      <trkpt lat="33.36019" lon="78.02317">
        <ele>4592</ele>
        <time>2015-09-07T11:44:48Z</time>
      </trkpt>
      <trkpt lat="33.36005" lon="78.02331">
        <ele>4591.2</ele>
        <time>2015-09-07T11:45:16Z</time>
      </trkpt>
      <trkpt lat="33.35997" lon="78.02338">
        <ele>4591</ele>
        <time>2015-09-07T11:45:27Z</time>
      </trkpt>
      <trkpt lat="33.3599" lon="78.02351">
        <ele>4589.8</ele>
        <time>2015-09-07T11:45:49Z</time>
      </trkpt>
      <trkpt lat="33.35985" lon="78.02357">
        <ele>4589.6</ele>
        <time>2015-09-07T11:45:58Z</time>
      </trkpt>
      <trkpt lat="33.35985" lon="78.02365">
        <ele>4590.8</ele>
        <time>2015-09-07T11:46:15Z</time>
      </trkpt>
      <trkpt lat="33.35977" lon="78.02365">
        <ele>4590.2</ele>
        <time>2015-09-07T11:47:02Z</time>
      </trkpt>
      <trkpt lat="33.35983" lon="78.02364">
        <ele>4589.6</ele>
        <time>2015-09-07T11:47:33Z</time>
      </trkpt>
      <trkpt lat="33.35981" lon="78.02362">
        <ele>4589.8</ele>
        <time>2015-09-07T11:47:47Z</time>
      </trkpt>
      <trkpt lat="33.35978" lon="78.02366">
        <ele>4590</ele>
        <time>2015-09-07T11:47:50Z</time>
      </trkpt>
      <trkpt lat="33.35976" lon="78.02367">
        <ele>4589.8</ele>
        <time>2015-09-07T11:47:53Z</time>
      </trkpt>
      <trkpt lat="33.35969" lon="78.02372">
        <ele>4589.6</ele>
        <time>2015-09-07T11:48:11Z</time>
      </trkpt>
      <trkpt lat="33.35962" lon="78.02379">
        <ele>4588.8</ele>
        <time>2015-09-07T11:48:41Z</time>
      </trkpt>
      <trkpt lat="33.35963" lon="78.02376">
        <ele>4589</ele>
        <time>2015-09-07T11:48:46Z</time>
      </trkpt>
      <trkpt lat="33.35973" lon="78.02368">
        <ele>4588</ele>
        <time>2015-09-07T11:49:39Z</time>
      </trkpt>
      <trkpt lat="33.3597" lon="78.02371">
        <ele>4588.4</ele>
        <time>2015-09-07T11:49:43Z</time>
      </trkpt>
      <trkpt lat="33.35963" lon="78.02376">
        <ele>4588.4</ele>
        <time>2015-09-07T11:49:48Z</time>
      </trkpt>
      <trkpt lat="33.35959" lon="78.02377">
        <ele>4588.2</ele>
        <time>2015-09-07T11:49:54Z</time>
      </trkpt>
      <trkpt lat="33.35956" lon="78.02378">
        <ele>4588.2</ele>
        <time>2015-09-07T11:49:57Z</time>
      </trkpt>
      <trkpt lat="33.35961" lon="78.02377">
        <ele>4588.4</ele>
        <time>2015-09-07T11:50:11Z</time>
      </trkpt>
      <trkpt lat="33.35962" lon="78.02374">
        <ele>4588.4</ele>
        <time>2015-09-07T11:50:14Z</time>
      </trkpt>
      <trkpt lat="33.35961" lon="78.02374">
        <ele>4587.8</ele>
        <time>2015-09-07T11:50:49Z</time>
      </trkpt>
      <trkpt lat="33.35967" lon="78.02372">
        <ele>4587.8</ele>
        <time>2015-09-07T11:51:12Z</time>
      </trkpt>
      <trkpt lat="33.35969" lon="78.02372">
        <ele>4588</ele>
        <time>2015-09-07T11:51:14Z</time>
      </trkpt>
      <trkpt lat="33.35968" lon="78.02368">
        <ele>4587.6</ele>
        <time>2015-09-07T11:51:30Z</time>
      </trkpt>
      <trkpt lat="33.35969" lon="78.02372">
        <ele>4587.4</ele>
        <time>2015-09-07T11:52:02Z</time>
      </trkpt>
      <trkpt lat="33.35966" lon="78.02372">
        <ele>4587.4</ele>
        <time>2015-09-07T11:52:05Z</time>
      </trkpt>
      <trkpt lat="33.3597" lon="78.02366">
        <ele>4587.6</ele>
        <time>2015-09-07T11:52:24Z</time>
      </trkpt>
      <trkpt lat="33.35974" lon="78.02358">
        <ele>4588</ele>
        <time>2015-09-07T11:52:34Z</time>
      </trkpt>
      <trkpt lat="33.35974" lon="78.02341">
        <ele>4586.8</ele>
        <time>2015-09-07T11:52:52Z</time>
      </trkpt>
      <trkpt lat="33.35969" lon="78.0233">
        <ele>4585.8</ele>
        <time>2015-09-07T11:53:02Z</time>
      </trkpt>
      <trkpt lat="33.35966" lon="78.02322">
        <ele>4584.6</ele>
        <time>2015-09-07T11:53:09Z</time>
      </trkpt>
      <trkpt lat="33.35969" lon="78.02313">
        <ele>4583.6</ele>
        <time>2015-09-07T11:53:21Z</time>
      </trkpt>
      <trkpt lat="33.3597" lon="78.02299">
        <ele>4582.6</ele>
        <time>2015-09-07T11:53:35Z</time>
      </trkpt>
      <trkpt lat="33.35975" lon="78.02278">
        <ele>4581.6</ele>
        <time>2015-09-07T11:53:57Z</time>
      </trkpt>
      <trkpt lat="33.35975" lon="78.02277">
        <ele>4581.4</ele>
        <time>2015-09-07T11:53:58Z</time>
      </trkpt>
      <trkpt lat="33.35981" lon="78.02255">
        <ele>4581.2</ele>
        <time>2015-09-07T11:54:13Z</time>
      </trkpt>
      <trkpt lat="33.35987" lon="78.02238">
        <ele>4581</ele>
        <time>2015-09-07T11:54:33Z</time>
      </trkpt>
      <trkpt lat="33.35987" lon="78.02226">
        <ele>4580.4</ele>
        <time>2015-09-07T11:54:46Z</time>
      </trkpt>
      <trkpt lat="33.35987" lon="78.02223">
        <ele>4580</ele>
        <time>2015-09-07T11:54:48Z</time>
      </trkpt>
      <trkpt lat="33.3599" lon="78.02206">
        <ele>4579.8</ele>
        <time>2015-09-07T11:55:21Z</time>
      </trkpt>
      <trkpt lat="33.35992" lon="78.02191">
        <ele>4579.4</ele>
        <time>2015-09-07T11:55:39Z</time>
      </trkpt>
      <trkpt lat="33.35992" lon="78.02189">
        <ele>4579.4</ele>
        <time>2015-09-07T11:55:40Z</time>
      </trkpt>
      <trkpt lat="33.35997" lon="78.0217">
        <ele>4580</ele>
        <time>2015-09-07T11:56:13Z</time>
      </trkpt>
      <trkpt lat="33.35998" lon="78.02149">
        <ele>4578.4</ele>
        <time>2015-09-07T11:56:33Z</time>
      </trkpt>
      <trkpt lat="33.36002" lon="78.02143">
        <ele>4578.4</ele>
        <time>2015-09-07T11:57:00Z</time>
      </trkpt>
      <trkpt lat="33.36006" lon="78.02136">
        <ele>4578</ele>
        <time>2015-09-07T11:57:45Z</time>
      </trkpt>
      <trkpt lat="33.36006" lon="78.02129">
        <ele>4577.2</ele>
        <time>2015-09-07T11:58:29Z</time>
      </trkpt>
      <trkpt lat="33.36005" lon="78.02127">
        <ele>4577.2</ele>
        <time>2015-09-07T11:58:31Z</time>
      </trkpt>
      <trkpt lat="33.36002" lon="78.02126">
        <ele>4576.8</ele>
        <time>2015-09-07T11:58:34Z</time>
      </trkpt>
      <trkpt lat="33.36" lon="78.02118">
        <ele>4576.2</ele>
        <time>2015-09-07T11:58:45Z</time>
      </trkpt>
      <trkpt lat="33.35997" lon="78.02108">
        <ele>4575.4</ele>
        <time>2015-09-07T11:58:54Z</time>
      </trkpt>
      <trkpt lat="33.35995" lon="78.02106">
        <ele>4575.2</ele>
        <time>2015-09-07T11:58:58Z</time>
      </trkpt>
      <trkpt lat="33.35987" lon="78.02088">
        <ele>4574.2</ele>
        <time>2015-09-07T11:59:17Z</time>
      </trkpt>
      <trkpt lat="33.35986" lon="78.02082">
        <ele>4573</ele>
        <time>2015-09-07T11:59:24Z</time>
      </trkpt>
      <trkpt lat="33.3599" lon="78.02078">
        <ele>4572</ele>
        <time>2015-09-07T11:59:30Z</time>
      </trkpt>
      <trkpt lat="33.35984" lon="78.02057">
        <ele>4571.4</ele>
        <time>2015-09-07T11:59:55Z</time>
      </trkpt>
      <trkpt lat="33.35984" lon="78.02054">
        <ele>4571</ele>
        <time>2015-09-07T11:59:59Z</time>
      </trkpt>
      <trkpt lat="33.35985" lon="78.02043">
        <ele>4570</ele>
        <time>2015-09-07T12:00:14Z</time>
      </trkpt>
      <trkpt lat="33.35983" lon="78.02038">
        <ele>4568.8</ele>
        <time>2015-09-07T12:00:18Z</time>
      </trkpt>
      <trkpt lat="33.35983" lon="78.02035">
        <ele>4568.2</ele>
        <time>2015-09-07T12:00:21Z</time>
      </trkpt>
      <trkpt lat="33.35982" lon="78.02027">
        <ele>4567.8</ele>
        <time>2015-09-07T12:00:29Z</time>
      </trkpt>
      <trkpt lat="33.35985" lon="78.02023">
        <ele>4567.4</ele>
        <time>2015-09-07T12:00:33Z</time>
      </trkpt>
      <trkpt lat="33.35989" lon="78.0201">
        <ele>4549.8</ele>
        <time>2015-09-07T12:00:43Z</time>
      </trkpt>
    </trkseg>
  </trk>
</gpx>